Time;durP1;ratioP1;P1;durP2;ratioP2;P2;SDS_P1;SDS_P2;PMS_P1;PMS_P2;Temp;Humidity;BMP_temperature;BMP_pressure;BME280_temperature;BME280_humidity;BME280_pressure;Samples;Min_cycle;Max_cycle;Signal;HPM_P1;HPM_P2
2022/12/07 00:01:14;;;;;;;39.55;19.50;;;;;;;0.47;100.00;101060.88;5016987;28;20046;-69
2022/12/07 00:03:40;;;;;;;48.67;23.13;;;;;;;0.46;100.00;101059.19;5051387;28;20036;-69
2022/12/07 00:06:06;;;;;;;60.60;26.17;;;;;;;0.42;100.00;101060.69;5023181;28;20308;-69
2022/12/07 00:08:32;;;;;;;73.40;30.27;;;;;;;0.38;100.00;101051.22;5009516;28;20091;-69
2022/12/07 00:11:07;;;;;;;64.97;27.45;;;;;;;0.37;100.00;101047.66;5001812;28;20106;-69
2022/12/07 00:13:33;;;;;;;67.25;29.33;;;;;;;0.37;100.00;101044.09;4985888;28;20030;-69
2022/12/07 00:16:07;;;;;;;71.13;30.27;;;;;;;0.34;100.00;101033.59;4985555;28;20155;-68
2022/12/07 00:18:33;;;;;;;67.95;28.42;;;;;;;0.28;100.00;101035.28;5018072;28;20082;-69
2022/12/07 00:21:15;;;;;;;69.32;28.70;;;;;;;0.29;100.00;101030.66;4985464;28;20478;-69
2022/12/07 00:23:41;;;;;;;68.00;27.27;;;;;;;0.27;100.00;101030.03;5019401;28;20038;-69
2022/12/07 00:26:11;;;;;;;58.53;25.63;;;;;;;0.21;100.00;101029.81;4998434;28;20034;-68
2022/12/07 00:28:36;;;;;;;56.25;24.65;;;;;;;0.18;100.00;101019.31;4999567;28;20034;-68
2022/12/07 00:31:03;;;;;;;61.85;24.63;;;;;;;0.18;100.00;101018.50;5036588;28;20372;-69
2022/12/07 00:33:28;;;;;;;56.67;24.15;;;;;;;0.14;100.00;101028.16;5030073;28;20026;-68
2022/12/07 00:35:58;;;;;;;54.88;22.67;;;;;;;0.09;100.00;101026.06;5001133;28;20054;-68
2022/12/07 00:38:23;;;;;;;56.55;22.48;;;;;;;0.07;100.00;101025.44;5017555;28;20727;-68
2022/12/07 00:41:00;;;;;;;52.28;22.10;;;;;;;0.05;100.00;101019.34;5007739;28;20022;-68
2022/12/07 00:43:26;;;;;;;54.53;22.90;;;;;;;0.03;100.00;101021.47;5001215;28;20041;-68
2022/12/07 00:45:52;;;;;;;50.08;21.65;;;;;;;0.05;100.00;101019.34;5001390;28;20030;-68
2022/12/07 00:48:17;;;;;;;48.42;21.85;;;;;;;-0.02;100.00;101018.53;4985159;28;20026;-69
2022/12/07 00:50:43;;;;;;;47.45;20.13;;;;;;;-0.03;100.00;101031.34;4981338;28;20026;-68
2022/12/07 00:53:08;;;;;;;49.10;20.27;;;;;;;-0.08;100.00;101025.69;5015539;28;20026;-68
2022/12/07 00:55:34;;;;;;;43.38;18.65;;;;;;;-0.11;100.00;101031.56;5016985;28;20026;-68
2022/12/07 00:58:00;;;;;;;40.95;18.65;;;;;;;-0.15;100.00;101029.47;5005175;28;20026;-68
2022/12/07 01:00:25;;;;;;;39.47;18.52;;;;;;;-0.20;100.00;101026.50;5000603;28;20049;-68
2022/12/07 01:02:51;;;;;;;41.83;17.73;;;;;;;-0.24;100.00;101026.94;4968419;28;20030;-69
2022/12/07 01:05:17;;;;;;;40.00;18.30;;;;;;;-0.25;100.00;101019.81;5016424;28;20038;-69
2022/12/07 01:07:42;;;;;;;37.88;17.42;;;;;;;-0.31;100.00;101014.34;5000674;28;20084;-69
2022/12/07 01:10:08;;;;;;;36.65;17.20;;;;;;;-0.35;100.00;101022.09;5000564;28;20033;-69
2022/12/07 01:12:33;;;;;;;36.58;16.83;;;;;;;-0.33;100.00;101022.75;5000684;28;20387;-68
2022/12/07 01:14:59;;;;;;;37.70;16.55;;;;;;;-0.37;100.00;101021.47;4984484;28;20030;-68
2022/12/07 01:17:24;;;;;;;32.88;16.88;;;;;;;-0.45;100.00;101024.41;5000538;28;20030;-68
2022/12/07 01:19:50;;;;;;;33.78;16.23;;;;;;;-0.47;100.00;101021.06;5000767;28;20054;-69
2022/12/07 01:22:15;;;;;;;35.28;16.40;;;;;;;-0.49;100.00;101021.25;5000383;28;20398;-69
2022/12/07 01:24:41;;;;;;;34.70;16.80;;;;;;;-0.53;100.00;101016.41;5000148;28;20034;-69
2022/12/07 01:27:06;;;;;;;37.83;16.45;;;;;;;-0.59;100.00;101019.97;4984025;28;20037;-69
2022/12/07 01:29:32;;;;;;;35.80;15.90;;;;;;;-0.60;100.00;101010.13;4984222;28;20418;-69
2022/12/07 01:31:57;;;;;;;34.65;15.77;;;;;;;-0.64;100.00;101014.31;4987265;28;20504;-69
2022/12/07 01:34:23;;;;;;;37.90;16.58;;;;;;;-0.64;100.00;101003.41;5010045;28;20034;-68
2022/12/07 01:36:48;;;;;;;34.90;16.13;;;;;;;-0.69;100.00;101007.59;4968913;28;20042;-69
2022/12/07 01:39:14;;;;;;;42.13;19.88;;;;;;;-0.78;100.00;101025.22;5000048;28;20029;-68
2022/12/07 01:41:40;;;;;;;41.88;18.85;;;;;;;-0.91;100.00;101031.47;5000459;28;20030;-69
2022/12/07 01:44:19;;;;;;;42.95;21.20;;;;;;;-0.92;100.00;101028.94;5000212;28;20032;-69
2022/12/07 01:46:50;;;;;;;49.33;21.35;;;;;;;-0.88;100.00;101026.66;5016343;28;20050;-68
2022/12/07 01:49:36;;;;;;;49.65;22.35;;;;;;;-0.96;100.00;101033.13;5000220;28;20610;-68
2022/12/07 01:52:11;;;;;;;46.35;21.58;;;;;;;-1.00;100.00;101030.00;5006196;28;20029;-68
2022/12/07 01:54:36;;;;;;;49.05;22.17;;;;;;;-1.04;100.00;101033.31;5050218;28;20037;-68
2022/12/07 01:57:02;;;;;;;44.38;21.25;;;;;;;-1.03;100.00;101026.81;5006469;28;20026;-68
2022/12/07 01:59:27;;;;;;;45.05;21.50;;;;;;;-1.02;100.00;101025.78;5003765;28;20052;-68
2022/12/07 02:01:54;;;;;;;43.70;20.48;;;;;;;-0.99;100.00;101028.94;4999149;28;20044;-68
2022/12/07 02:04:19;;;;;;;46.38;22.02;;;;;;;-1.09;100.00;101025.75;4983514;28;20035;-68
2022/12/07 02:06:45;;;;;;;44.33;20.75;;;;;;;-1.04;100.00;101036.03;4999578;28;20046;-68
2022/12/07 02:09:10;;;;;;;45.25;21.00;;;;;;;-1.07;100.00;101041.91;4999514;28;20041;-69
2022/12/07 02:11:36;;;;;;;44.55;20.25;;;;;;;-1.05;100.00;101034.38;4999800;28;20096;-68
2022/12/07 02:14:01;;;;;;;44.95;20.55;;;;;;;-1.05;100.00;101039.81;4999439;28;20386;-68
2022/12/07 02:16:42;;;;;;;41.50;19.00;;;;;;;-1.01;100.00;101030.19;4993153;28;20113;-68
2022/12/07 02:19:31;;;;;;;41.72;20.05;;;;;;;-1.02;100.00;101034.78;5002577;28;20097;-69
2022/12/07 02:22:26;;;;;;;43.42;19.63;;;;;;;-1.05;100.00;101042.56;5016749;28;20112;-69
2022/12/07 02:25:28;;;;;;;40.85;19.02;;;;;;;-1.06;100.00;101035.41;5015564;28;20188;-68
2022/12/07 02:28:00;;;;;;;38.90;18.67;;;;;;;-1.09;100.00;101044.00;5020875;28;20028;-69
2022/12/07 02:30:28;;;;;;;29.67;14.10;;;;;;;-1.16;100.00;101047.53;5012802;28;20033;-69
2022/12/07 02:33:08;;;;;;;41.33;18.88;;;;;;;-1.13;100.00;101038.94;5026814;28;20029;-68
2022/12/07 02:35:42;;;;;;;40.40;19.45;;;;;;;-1.13;100.00;101033.50;4984664;28;20588;-68
2022/12/07 02:38:26;;;;;;;40.97;17.65;;;;;;;-1.18;100.00;101032.44;4982993;28;20037;-69
2022/12/07 02:40:54;;;;;;;40.15;18.85;;;;;;;-1.18;100.00;101040.59;5000553;28;20117;-69
2022/12/07 02:43:25;;;;;;;40.53;19.15;;;;;;;-1.16;100.00;101041.25;4982606;28;20034;-69
2022/12/07 02:46:00;;;;;;;36.55;17.40;;;;;;;-1.25;100.00;101029.69;4990981;28;20311;-69
2022/12/07 02:48:26;;;;;;;32.40;16.27;;;;;;;-1.21;100.00;101027.38;4999039;28;20064;-68
2022/12/07 02:50:52;;;;;;;36.78;17.08;;;;;;;-1.20;100.00;101026.34;4999165;28;20057;-68
2022/12/07 02:53:33;;;;;;;40.67;18.17;;;;;;;-1.24;100.00;101034.09;4996770;28;20023;-68
2022/12/07 02:56:06;;;;;;;37.78;17.17;;;;;;;-1.32;100.00;101044.31;5044187;28;20390;-68
2022/12/07 02:58:46;;;;;;;;;;;;;;;-1.29;100.00;101046.63;4998237;28;20123;-68
2022/12/07 03:01:15;;;;;;;35.22;15.80;;;;;;;-1.36;100.00;101036.56;4998384;28;19956;-68
2022/12/07 03:03:41;;;;;;;36.83;17.45;;;;;;;-1.39;100.00;101039.69;4996925;28;20076;-68
2022/12/07 03:06:31;;;;;;;34.75;17.33;;;;;;;-1.42;100.00;101036.50;5014839;28;20029;-69
2022/12/07 03:09:21;;;;;;;36.97;16.83;;;;;;;-1.43;100.00;101043.84;4966142;28;20061;-68
2022/12/07 03:11:48;;;;;;;35.70;16.13;;;;;;;-1.43;100.00;101043.84;4998814;28;20080;-68
2022/12/07 03:14:24;;;;;;;38.55;18.55;;;;;;;-1.45;100.00;101034.19;5014671;28;20096;-69
2022/12/07 03:16:55;;;;;;;38.63;17.95;;;;;;;-1.48;100.00;101023.69;4999271;28;20026;-69
2022/12/07 03:19:21;;;;;;;38.10;17.23;;;;;;;-1.47;100.00;101028.97;4966734;28;20064;-68
2022/12/07 03:21:57;;;;;;;35.03;16.63;;;;;;;-1.45;100.00;101028.75;4982093;28;20026;-68
2022/12/07 03:24:44;;;;;;;39.78;18.23;;;;;;;-1.51;100.00;101032.28;4999866;28;20088;-68
2022/12/07 03:27:21;;;;;;;40.40;17.85;;;;;;;-1.55;100.00;101034.56;5014311;28;20032;-68
2022/12/07 03:30:29;;;;;;;35.13;17.55;;;;;;;-1.52;100.00;101038.78;4998909;28;20474;-68
2022/12/07 03:33:08;;;;;;;41.25;18.10;;;;;;;-1.58;100.00;101033.09;4973877;28;20414;-68
2022/12/07 03:35:45;;;;;;;43.88;19.63;;;;;;;-1.60;100.00;101040.63;4977152;28;20042;-68
2022/12/07 03:38:28;;;;;;;38.90;18.73;;;;;;;-1.61;100.00;101030.78;4980157;28;20056;-68
2022/12/07 03:41:14;;;;;;;38.15;18.20;;;;;;;-1.60;100.00;101028.88;4984458;28;20530;-69
2022/12/07 03:43:40;;;;;;;39.75;18.77;;;;;;;-1.64;100.00;101027.63;4988917;28;20105;-68
2022/12/07 03:46:40;;;;;;;41.58;19.38;;;;;;;-1.72;100.00;101025.91;4960027;28;20070;-69
2022/12/07 03:49:30;;;;;;;41.40;19.05;;;;;;;-1.70;100.00;101026.53;5005084;28;20037;-68
2022/12/07 03:52:01;;;;;;;41.90;17.80;;;;;;;-1.75;100.00;101034.47;4966217;28;20117;-68
2022/12/07 03:54:34;;;;;;;41.72;18.85;;;;;;;-1.78;100.00;101034.88;4992962;28;20117;-68
2022/12/07 03:57:00;;;;;;;42.13;19.50;;;;;;;-1.83;100.00;101030.00;4978072;28;20062;-68
2022/12/07 03:59:26;;;;;;;40.17;18.13;;;;;;;-1.86;100.00;101030.41;4967759;28;20029;-69
2022/12/07 04:01:56;;;;;;;45.35;19.38;;;;;;;-1.92;100.00;101033.06;4953470;28;20030;-68
2022/12/07 04:04:23;;;;;;;41.38;18.83;;;;;;;-1.90;100.00;101025.56;4964451;28;20120;-69
2022/12/07 04:06:48;;;;;;;47.42;19.33;;;;;;;-1.93;100.00;101025.97;4975509;28;20030;-69
2022/12/07 04:09:14;;;;;;;41.42;18.15;;;;;;;-1.96;100.00;101032.63;5009237;28;20062;-68
2022/12/07 04:11:40;;;;;;;40.47;19.13;;;;;;;-2.02;100.00;101031.56;5014241;28;20045;-69
2022/12/07 04:14:20;;;;;;;41.35;20.05;;;;;;;-2.02;100.00;101034.28;4997703;28;20513;-68
2022/12/07 04:16:51;;;;;;;36.65;18.10;;;;;;;-2.00;100.00;101033.25;5000567;28;20109;-68
2022/12/07 04:19:20;;;;;;;39.15;18.80;;;;;;;-1.97;100.00;101030.13;4993275;28;20030;-69
2022/12/07 04:21:46;;;;;;;39.88;19.27;;;;;;;-1.99;100.00;101033.03;5014050;28;20033;-68
2022/12/07 04:24:12;;;;;;;40.85;18.63;;;;;;;-2.02;100.00;101030.72;4981365;28;20042;-68
2022/12/07 04:26:38;;;;;;;36.45;17.90;;;;;;;-2.07;100.00;101023.13;5012944;28;20022;-68
2022/12/07 04:29:03;;;;;;;34.88;18.08;;;;;;;-2.08;100.00;101021.47;4981510;28;20026;-68
2022/12/07 04:31:29;;;;;;;34.10;17.65;;;;;;;-2.07;100.00;101019.59;4981448;28;20029;-69
2022/12/07 04:33:54;;;;;;;35.63;18.40;;;;;;;-2.09;100.00;101033.41;5013916;28;20030;-68
2022/12/07 04:36:20;;;;;;;37.17;17.88;;;;;;;-2.11;100.00;101021.88;4997310;28;20054;-68
2022/12/07 04:38:46;;;;;;;35.03;16.80;;;;;;;-2.13;100.00;101025.81;4997601;28;20041;-68
2022/12/07 04:41:12;;;;;;;34.30;16.30;;;;;;;-2.11;100.00;101023.75;4985083;28;20026;-68
2022/12/07 04:43:37;;;;;;;35.60;16.45;;;;;;;-2.14;100.00;101021.44;4985126;28;20643;-68
2022/12/07 04:46:03;;;;;;;32.92;15.38;;;;;;;-2.16;100.00;101013.47;4984965;28;20049;-68
2022/12/07 04:48:28;;;;;;;36.92;17.27;;;;;;;-2.19;100.00;101010.28;5001191;28;20109;-68
2022/12/07 04:50:54;;;;;;;36.85;16.27;;;;;;;-2.21;100.00;101024.09;5013528;28;20029;-69
2022/12/07 04:53:19;;;;;;;34.03;16.67;;;;;;;-2.31;100.00;101024.44;4997875;28;20026;-68
2022/12/07 04:55:45;;;;;;;36.13;16.52;;;;;;;-2.31;100.00;101019.00;5010174;28;20033;-68
2022/12/07 04:58:11;;;;;;;34.72;16.70;;;;;;;-2.29;100.00;101014.19;4995024;28;20291;-68
2022/12/07 05:00:37;;;;;;;34.05;16.90;;;;;;;-2.31;100.00;101021.72;5001135;28;20026;-68
2022/12/07 05:03:02;;;;;;;35.53;17.05;;;;;;;-2.32;100.00;101027.34;5017151;28;20033;-68
2022/12/07 05:05:27;;;;;;;35.28;16.52;;;;;;;-2.33;100.00;101015.63;5009215;28;20026;-69
2022/12/07 05:07:53;;;;;;;36.83;16.98;;;;;;;-2.30;100.00;101014.41;5022977;28;20025;-69
2022/12/07 05:10:19;;;;;;;36.22;16.92;;;;;;;-2.38;100.00;101020.81;5004539;28;20471;-68
2022/12/07 05:12:45;;;;;;;32.45;16.33;;;;;;;-2.36;100.00;101015.19;5000614;28;20029;-69
2022/12/07 05:15:11;;;;;;;34.22;16.05;;;;;;;-2.34;100.00;101013.09;4984785;28;20087;-69
2022/12/07 05:17:37;;;;;;;31.60;15.88;;;;;;;-2.36;100.00;101009.75;4984581;28;20030;-68
2022/12/07 05:20:02;;;;;;;29.95;15.27;;;;;;;-2.32;100.00;100995.53;5017309;28;20037;-69
2022/12/07 05:22:28;;;;;;;30.02;14.75;;;;;;;-2.30;100.00;100998.91;5004641;28;20033;-69
2022/12/07 05:24:54;;;;;;;36.80;15.95;;;;;;;-2.30;100.00;101007.06;5000385;28;20724;-69
2022/12/07 05:27:20;;;;;;;38.13;16.23;;;;;;;-2.26;100.00;100997.50;5000391;28;20451;-68
2022/12/07 05:29:45;;;;;;;39.67;17.88;;;;;;;-2.33;100.00;101007.47;4989051;28;20165;-69
2022/12/07 05:32:11;;;;;;;35.67;16.05;;;;;;;-2.36;100.00;101016.03;5026050;28;20096;-69
2022/12/07 05:34:36;;;;;;;45.72;15.38;;;;;;;-2.44;100.00;101024.31;5061629;28;20482;-68
2022/12/07 05:37:02;;;;;;;53.08;15.68;;;;;;;-2.52;100.00;101036.19;5021246;28;20045;-68
2022/12/07 05:39:27;;;;;;;46.22;14.93;;;;;;;-2.53;100.00;101041.81;4991655;28;20360;-68
2022/12/07 05:44:37;;;;;;;91.13;18.08;;;;;;;-2.63;100.00;101031.25;5008248;28;20041;-68
2022/12/07 05:47:03;;;;;;;58.03;16.48;;;;;;;-2.63;100.00;101042.13;5000033;28;20026;-68
2022/12/07 05:49:28;;;;;;;45.60;16.30;;;;;;;-2.61;100.00;101044.69;5000021;28;20026;-69
2022/12/07 05:51:54;;;;;;;31.48;15.80;;;;;;;-2.54;100.00;101046.41;4999962;28;20646;-68
2022/12/07 05:54:19;;;;;;;42.85;14.85;;;;;;;-2.56;100.00;101048.50;4997550;28;20033;-68
2022/12/07 05:56:45;;;;;;;59.88;15.57;;;;;;;-2.54;100.00;101040.13;4999094;28;20038;-68
2022/12/07 05:59:22;;;;;;;36.38;13.18;;;;;;;-2.48;100.00;101045.66;5032670;28;20116;-69
2022/12/07 06:01:55;;;;;;;24.95;12.60;;;;;;;-2.42;100.00;101029.56;5001340;28;20029;-68
2022/12/07 06:04:21;;;;;;;23.83;13.18;;;;;;;-2.34;100.00;101024.84;5000273;28;20070;-69
2022/12/07 06:06:46;;;;;;;25.02;13.45;;;;;;;-2.24;100.00;101038.09;4983631;28;20433;-69
2022/12/07 06:09:14;;;;;;;47.28;14.77;;;;;;;-2.29;100.00;101032.38;4983204;28;20037;-68
2022/12/07 06:14:24;;;;;;;29.50;12.60;;;;;;;-2.26;100.00;101027.41;5004479;28;20094;-68
2022/12/07 06:16:49;;;;;;;26.25;13.40;;;;;;;-2.25;100.00;101037.25;4999646;28;20693;-68
2022/12/07 06:19:15;;;;;;;36.47;13.57;;;;;;;-2.28;100.00;101040.38;4999561;28;20030;-68
2022/12/07 06:21:41;;;;;;;36.88;15.38;;;;;;;-2.27;100.00;101041.22;4999346;28;20037;-69
2022/12/07 06:24:06;;;;;;;23.25;12.52;;;;;;;-2.17;100.00;101035.41;4999186;28;20057;-69
2022/12/07 06:26:32;;;;;;;34.05;15.30;;;;;;;-2.18;100.00;101029.13;4996717;28;20089;-69
2022/12/07 06:28:57;;;;;;;26.85;15.05;;;;;;;-2.12;100.00;101022.88;4999028;28;20034;-68
2022/12/07 06:31:23;;;;;;;25.45;13.88;;;;;;;-2.07;100.00;101014.97;4999161;28;20030;-69
2022/12/07 06:33:48;;;;;;;21.08;12.73;;;;;;;-2.02;100.00;101015.22;4998954;28;20033;-68
2022/12/07 06:36:14;;;;;;;25.15;13.50;;;;;;;-1.96;100.00;101010.03;4982553;28;20089;-69
2022/12/07 06:38:39;;;;;;;33.75;13.80;;;;;;;-1.98;100.00;101014.81;5015260;28;20040;-69
2022/12/07 06:41:05;;;;;;;25.63;13.85;;;;;;;-1.96;100.00;101020.91;5015419;28;20030;-68
2022/12/07 06:43:30;;;;;;;47.13;16.05;;;;;;;-1.96;100.00;101024.47;4983015;28;20474;-69
2022/12/07 06:45:56;;;;;;;41.10;14.18;;;;;;;-1.95;100.00;101030.75;4982777;28;20030;-69
2022/12/07 06:48:21;;;;;;;24.23;13.35;;;;;;;-1.92;100.00;101027.63;5015292;28;20034;-69
2022/12/07 06:50:47;;;;;;;32.50;14.30;;;;;;;-1.91;100.00;101029.34;4998899;28;20030;-69
2022/12/07 06:53:13;;;;;;;23.20;12.98;;;;;;;-1.88;100.00;101031.66;4995303;28;20364;-69
2022/12/07 06:55:38;;;;;;;25.60;13.27;;;;;;;-1.88;100.00;101028.94;5015193;28;20108;-69
2022/12/07 06:58:04;;;;;;;24.55;12.85;;;;;;;-1.77;100.00;101031.09;5030573;28;20045;-68
2022/12/07 07:00:29;;;;;;;20.98;12.25;;;;;;;-1.70;100.00;101029.25;5028276;28;20030;-69
2022/12/07 07:02:55;;;;;;;22.17;12.63;;;;;;;-1.69;100.00;101025.50;5014382;28;20059;-69
2022/12/07 07:05:23;;;;;;;21.17;12.02;;;;;;;-1.65;100.00;101028.63;4994725;28;20411;-69
2022/12/07 07:07:49;;;;;;;19.42;11.98;;;;;;;-1.59;100.00;101033.28;5015009;28;20029;-69
2022/12/07 07:10:14;;;;;;;20.08;11.88;;;;;;;-1.57;100.00;101028.47;4998469;28;20042;-68
2022/12/07 07:12:40;;;;;;;23.02;12.88;;;;;;;-1.54;100.00;101025.34;4982479;28;20030;-69
2022/12/07 07:15:06;;;;;;;20.40;11.73;;;;;;;-1.52;100.00;101030.59;4994650;28;20025;-69
2022/12/07 07:17:31;;;;;;;27.52;12.52;;;;;;;-1.49;100.00;101032.94;4982815;28;20034;-68
2022/12/07 07:19:57;;;;;;;23.98;12.25;;;;;;;-1.49;100.00;101025.59;4998543;28;20501;-68
2022/12/07 07:22:23;;;;;;;20.42;11.80;;;;;;;-1.45;100.00;101023.28;4998431;28;20037;-69
2022/12/07 07:24:48;;;;;;;21.08;12.02;;;;;;;-1.45;100.00;101023.28;4978464;28;20037;-69
2022/12/07 07:27:14;;;;;;;28.70;15.15;;;;;;;-1.51;100.00;101035.00;4995523;28;20022;-69
2022/12/07 07:29:39;;;;;;;29.02;13.90;;;;;;;-1.48;100.00;101034.59;5004079;28;20042;-69
2022/12/07 07:32:05;;;;;;;30.85;14.48;;;;;;;-1.48;100.00;101031.88;5025167;28;20031;-69
2022/12/07 07:34:30;;;;;;;27.50;14.40;;;;;;;-1.43;100.00;101032.94;5058385;28;20041;-68
2022/12/07 07:36:56;;;;;;;26.55;13.82;;;;;;;-1.39;100.00;101030.69;4984074;28;20057;-69
2022/12/07 07:39:21;;;;;;;35.50;15.35;;;;;;;-1.43;100.00;101037.56;4998202;28;20033;-68
2022/12/07 07:41:47;;;;;;;53.10;15.45;;;;;;;-1.55;100.00;101045.47;5002025;28;20030;-68
2022/12/07 07:44:12;;;;;;;28.30;15.25;;;;;;;-1.51;100.00;101045.91;4990761;28;20025;-68
2022/12/07 07:46:38;;;;;;;24.52;13.60;;;;;;;-1.52;100.00;101038.78;5034961;28;20025;-68
2022/12/07 07:49:03;;;;;;;25.02;14.45;;;;;;;-1.50;100.00;101047.59;5007118;28;20479;-69
2022/12/07 07:51:29;;;;;;;24.67;14.05;;;;;;;-1.50;100.00;101044.88;4981650;28;20022;-68
2022/12/07 07:53:54;;;;;;;27.13;14.30;;;;;;;-1.53;100.00;101050.69;4994334;28;20030;-68
2022/12/07 07:56:19;;;;;;;29.42;13.38;;;;;;;-1.54;100.00;101040.84;4979194;28;20029;-68
2022/12/07 07:58:45;;;;;;;52.10;14.60;;;;;;;-1.55;100.00;101044.63;4994648;28;20030;-68
2022/12/07 08:01:10;;;;;;;22.60;12.50;;;;;;;-1.55;100.00;101040.03;4997914;28;20037;-68
2022/12/07 08:03:36;;;;;;;27.20;14.35;;;;;;;-1.55;100.00;101039.19;5014212;28;20112;-69
2022/12/07 08:06:05;;;;;;;22.50;12.68;;;;;;;-1.50;100.00;101039.44;4997849;28;20037;-68
2022/12/07 08:08:30;;;;;;;22.85;12.70;;;;;;;-1.44;100.00;101041.34;4997847;28;20386;-68
2022/12/07 08:10:56;;;;;;;34.80;14.27;;;;;;;-1.42;100.00;101041.97;5014239;28;20061;-68
2022/12/07 08:13:21;;;;;;;22.90;12.68;;;;;;;-1.39;100.00;101047.03;4982816;28;20058;-68
2022/12/07 08:15:47;;;;;;;22.80;12.82;;;;;;;-1.37;100.00;101042.19;5014719;28;20513;-69
2022/12/07 08:18:13;;;;;;;22.48;12.68;;;;;;;-1.31;100.00;101046.00;5017914;28;20022;-69
2022/12/07 08:20:39;;;;;;;23.75;11.90;;;;;;;-1.31;100.00;101044.13;4985218;28;20045;-68
2022/12/07 08:23:05;;;;;;;19.90;11.70;;;;;;;-1.24;100.00;101042.25;5017591;28;20662;-69
2022/12/07 08:25:31;;;;;;;20.25;12.00;;;;;;;-1.21;100.00;101036.41;5034131;28;20030;-68
2022/12/07 08:27:56;;;;;;;20.20;11.60;;;;;;;-1.16;100.00;101024.91;5030689;28;20063;-68
2022/12/07 08:30:22;;;;;;;19.83;11.65;;;;;;;-1.12;100.00;101028.88;5032179;28;20033;-69
2022/12/07 08:32:47;;;;;;;19.05;11.48;;;;;;;-1.10;100.00;101045.88;5027861;28;20030;-69
2022/12/07 08:35:13;;;;;;;19.75;11.60;;;;;;;-1.08;100.00;101049.25;5004232;28;20383;-68
2022/12/07 08:37:39;;;;;;;20.38;12.20;;;;;;;-1.05;100.00;101045.28;4985174;28;20056;-68
2022/12/07 08:40:06;;;;;;;19.92;11.18;;;;;;;-1.04;100.00;101045.06;4968659;28;20045;-69
2022/12/07 08:42:37;;;;;;;21.13;12.20;;;;;;;-1.00;100.00;101043.63;5001622;28;20482;-68
2022/12/07 08:45:07;;;;;;;21.17;12.07;;;;;;;-0.97;100.00;101037.75;5002237;28;20030;-68
2022/12/07 08:47:33;;;;;;;20.25;11.38;;;;;;;-0.95;100.00;101042.97;5026333;28;20026;-68
2022/12/07 08:50:03;;;;;;;18.80;11.32;;;;;;;-0.97;100.00;101045.09;5037286;28;20032;-68
2022/12/07 08:52:30;;;;;;;19.65;12.02;;;;;;;-0.94;100.00;101050.13;5009044;28;20041;-69
2022/12/07 08:54:55;;;;;;;20.63;12.00;;;;;;;-0.92;100.00;101042.56;4998889;28;20037;-68
2022/12/07 08:57:20;;;;;;;18.73;11.05;;;;;;;-0.87;100.00;101047.41;4996235;28;20031;-68
2022/12/07 08:59:46;;;;;;;20.65;11.65;;;;;;;-0.87;100.00;101048.25;5017209;28;20026;-69
2022/12/07 09:02:12;;;;;;;20.45;12.52;;;;;;;-0.88;100.00;101051.19;4984664;28;20080;-68
2022/12/07 09:04:37;;;;;;;20.00;12.00;;;;;;;-0.86;100.00;101052.69;5000782;28;20521;-68
2022/12/07 09:07:03;;;;;;;18.52;11.20;;;;;;;-0.84;100.00;101052.47;5017500;28;20030;-68
2022/12/07 09:09:29;;;;;;;20.55;12.15;;;;;;;-0.78;100.00;101049.75;4984727;28;20025;-69
2022/12/07 09:11:55;;;;;;;19.20;11.15;;;;;;;-0.75;100.00;101056.69;5000666;28;20680;-69
2022/12/07 09:14:20;;;;;;;20.90;11.63;;;;;;;-0.71;100.00;101053.34;5017318;28;20033;-69
2022/12/07 09:16:46;;;;;;;20.88;11.77;;;;;;;-0.66;100.00;101050.00;4968197;28;20030;-68
2022/12/07 09:19:11;;;;;;;19.80;10.95;;;;;;;-0.60;100.00;101056.50;5010311;28;20509;-69
2022/12/07 09:21:37;;;;;;;22.35;11.77;;;;;;;-0.57;100.00;101037.81;4995134;28;20026;-68
2022/12/07 09:24:03;;;;;;;21.17;12.20;;;;;;;-0.52;100.00;101032.59;5033901;28;20033;-68
2022/12/07 09:26:29;;;;;;;22.80;12.82;;;;;;;-0.47;100.00;101031.97;5015974;28;20382;-68
2022/12/07 09:28:54;;;;;;;19.55;10.85;;;;;;;-0.40;100.00;101032.81;5016640;28;20042;-68
2022/12/07 09:31:20;;;;;;;19.15;10.80;;;;;;;-0.31;100.00;101028.81;5021525;28;20463;-68
2022/12/07 09:33:45;;;;;;;18.33;10.82;;;;;;;-0.24;100.00;101037.84;5059661;28;20030;-68
2022/12/07 09:36:11;;;;;;;19.77;11.65;;;;;;;-0.13;100.00;101038.28;5032732;28;20096;-70
2022/12/07 09:38:36;;;;;;;19.20;11.45;;;;;;;-0.07;100.00;101031.97;4996865;28;20038;-70
2022/12/07 09:41:06;;;;;;;20.23;11.02;;;;;;;0.01;100.00;101036.38;4983781;28;20037;-70
2022/12/07 09:43:32;;;;;;;20.13;11.70;;;;;;;0.10;100.00;101033.22;5000276;28;20041;-69
2022/12/07 09:45:57;;;;;;;20.75;11.88;;;;;;;0.15;100.00;101025.22;4983996;28;20026;-68
2022/12/07 09:48:29;;;;;;;19.50;11.73;;;;;;;0.24;100.00;101038.66;4999975;28;20030;-68
2022/12/07 09:50:54;;;;;;;19.15;11.63;;;;;;;0.28;100.00;101037.16;5000528;28;20034;-68
2022/12/07 09:53:29;;;;;;;18.30;11.35;;;;;;;0.34;100.00;101037.16;4996264;28;20491;-69
2022/12/07 09:55:55;;;;;;;18.85;10.98;;;;;;;0.38;100.00;101037.56;5010147;28;20030;-68
2022/12/07 09:58:23;;;;;;;17.17;10.77;;;;;;;0.42;100.00;101042.41;5010508;28;20025;-68
2022/12/07 10:00:56;;;;;;;16.92;10.65;;;;;;;0.47;100.00;101033.53;5026824;28;20103;-68
2022/12/07 10:03:21;;;;;;;22.55;11.80;;;;;;;0.50;100.00;101046.78;5000538;28;20111;-68
2022/12/07 10:05:49;;;;;;;18.05;10.73;;;;;;;0.50;100.00;101054.13;4998618;28;20030;-68
2022/12/07 10:08:16;;;;;;;53.17;12.68;;;;;;;0.31;100.00;101055.88;4999663;28;20045;-69
2022/12/07 10:10:42;;;;;;;18.42;11.18;;;;;;;0.39;100.00;101047.44;5002582;28;20041;-68
2022/12/07 10:13:12;;;;;;;22.13;10.65;;;;;;;0.41;100.00;101056.25;5008967;28;20038;-68
2022/12/07 10:15:56;;;;;;;14.55;9.43;;;;;;;0.47;100.00;101054.56;4987012;28;20033;-68
2022/12/07 10:18:31;;;;;;;17.10;10.52;;;;;;;0.52;100.00;101047.41;4999737;28;20084;-69
2022/12/07 10:21:01;;;;;;;15.05;9.32;;;;;;;0.55;100.00;101041.50;5023710;28;20040;-68
2022/12/07 10:23:27;;;;;;;16.90;10.27;;;;;;;0.58;100.00;101037.50;5015639;28;20081;-68
2022/12/07 10:25:54;;;;;;;14.23;9.57;;;;;;;0.63;100.00;101044.00;4983185;28;20360;-68
2022/12/07 10:28:20;;;;;;;14.65;9.57;;;;;;;0.69;100.00;101034.09;5015610;28;20382;-69
2022/12/07 10:30:56;;;;;;;16.60;9.95;;;;;;;0.76;100.00;101037.66;5002802;28;20034;-68
2022/12/07 10:33:38;;;;;;;14.40;9.73;;;;;;;0.84;100.00;101031.13;5016108;28;20052;-69
2022/12/07 10:36:24;;;;;;;17.83;10.53;;;;;;;0.92;100.00;101022.66;4998871;28;20054;-69
2022/12/07 10:39:00;;;;;;;14.57;9.50;;;;;;;1.04;100.00;101022.81;5002168;28;20130;-68
2022/12/07 10:41:26;;;;;;;15.60;9.60;;;;;;;1.13;100.00;101017.91;4999316;28;20038;-69
2022/12/07 10:43:54;;;;;;;15.70;10.02;;;;;;;1.25;100.00;101014.25;4983167;28;20560;-68
2022/12/07 10:46:29;;;;;;;16.25;9.98;;;;;;;1.36;100.00;101003.66;4981674;28;20059;-69
2022/12/07 10:49:03;;;;;;;18.15;10.95;;;;;;;1.48;100.00;100999.19;5016725;28;20105;-69
2022/12/07 10:51:32;;;;;;;15.73;10.35;;;;;;;1.60;100.00;101002.03;5004390;28;20048;-68
2022/12/07 10:54:11;;;;;;;16.52;10.52;;;;;;;1.71;100.00;101006.78;5055774;28;20030;-68
2022/12/07 10:56:57;;;;;;;22.25;13.75;;;;;;;1.82;100.00;101000.56;5015344;28;20030;-68
2022/12/07 10:59:27;;;;;;;19.63;11.95;;;;;;;1.92;100.00;100995.44;5012137;28;20088;-68
2022/12/07 11:02:17;;;;;;;22.95;12.27;;;;;;;2.04;100.00;100989.22;4998709;28;20688;-68
2022/12/07 11:05:10;;;;;;;20.75;13.98;;;;;;;2.16;100.00;100985.47;5007158;28;20038;-68
2022/12/07 11:07:58;;;;;;;24.02;14.38;;;;;;;2.29;100.00;100981.78;5000354;28;20068;-68
2022/12/07 11:10:40;;;;;;;20.40;13.18;;;;;;;2.41;100.00;100979.09;4982448;28;20066;-68
2022/12/07 11:13:15;;;;;;;27.17;16.50;;;;;;;2.51;100.00;100973.06;5015443;28;20465;-68
2022/12/07 11:15:52;;;;;;;26.63;15.77;;;;;;;2.58;100.00;100974.66;5014834;28;20035;-68
2022/12/07 11:18:26;;;;;;;25.85;15.43;;;;;;;2.67;100.00;100973.31;5024013;28;20067;-68